Terminal Aerodrome Forecast
Issued by NWS

Home | Current Version | Previous Version | Graphics & Text | Print | Product List | Glossary On
Versions: 1 2 3 4 5 6 7 8 9 10 11 12 13 14 15 16 17
000
FTUS43 KGRB 211300 AAA
TAFAUW
TAF AMD
KAUW 211336Z 2114/2212 18003KT 2SM BR VCSH SCT016 SCT120
      TEMPO 2114/2116 4SM BR BKN016
     FM211600 19006KT 4SM BR VCSH BKN035 OVC070
      TEMPO 2116/2119 2SM TSRA BR BKN020CB
     FM211900 31012KT P6SM SCT020 BKN035
     FM212300 31013G21KT P6SM SCT025=

USA.gov is the U.S. government's official web portal to all federal, state and local government web resources and services.